Time;durP1;ratioP1;P1;durP2;ratioP2;P2;SDS_P1;SDS_P2;PMS_P1;PMS_P2;Temp;Humidity;BMP_temperature;BMP_pressure;BME280_temperature;BME280_humidity;BME280_pressure;Samples;Min_cycle;Max_cycle;Signal;HPM_P1;HPM_P2
2023/07/27 00:03:16;;;;;;;3.33;1.48;;;;;;;14.47;66.72;99594.41;10428429;28;20300;-59
2023/07/27 00:08:18;;;;;;;2.13;1.15;;;;;;;14.47;66.25;99584.69;10427704;28;20140;-59
2023/07/27 00:13:20;;;;;;;1.98;1.33;;;;;;;14.40;66.41;99586.16;10422918;28;20128;-59
2023/07/27 00:18:22;;;;;;;2.92;1.20;;;;;;;14.40;66.50;99588.78;10442101;28;20166;-59
2023/07/27 00:23:24;;;;;;;2.42;1.20;;;;;;;14.42;66.38;99580.75;10428977;28;20049;-59
2023/07/27 00:28:26;;;;;;;1.55;1.10;;;;;;;14.40;66.42;99577.41;10428499;28;20040;-59
2023/07/27 00:33:29;;;;;;;2.58;1.20;;;;;;;14.38;66.44;99569.66;10426801;28;20517;-59
2023/07/27 00:38:31;;;;;;;1.77;1.13;;;;;;;14.32;66.35;99559.63;10427652;28;20126;-59
2023/07/27 00:43:33;;;;;;;2.42;1.25;;;;;;;14.33;66.27;99561.28;10459202;28;20467;-59
2023/07/27 00:48:35;;;;;;;2.20;1.13;;;;;;;14.31;66.18;99563.22;10427122;28;20131;-59
2023/07/27 00:53:37;;;;;;;2.00;1.20;;;;;;;14.36;65.83;99555.78;10427392;28;20455;-59
2023/07/27 00:58:41;;;;;;;1.75;1.13;;;;;;;14.38;66.06;99551.25;10425128;28;20056;-59
2023/07/27 01:03:44;;;;;;;2.20;1.40;;;;;;;14.38;65.68;99534.63;10424457;28;20500;-58
2023/07/27 01:08:46;;;;;;;1.55;1.17;;;;;;;14.37;65.79;99530.34;10423834;28;20049;-58
2023/07/27 01:14:00;;;;;;;1.73;1.20;;;;;;;14.35;66.18;99521.72;10425688;28;20037;-59
2023/07/27 01:19:04;;;;;;;3.58;1.30;;;;;;;14.25;66.05;99511.09;10425346;28;20505;-58
2023/07/27 01:24:32;;;;;;;2.00;1.20;;;;;;;14.18;66.51;99506.47;10424781;28;20049;-58
2023/07/27 01:29:53;;;;;;;1.83;1.27;;;;;;;14.17;66.96;99492.47;10426075;28;20040;-59
2023/07/27 01:34:59;;;;;;;1.33;1.08;;;;;;;14.20;66.17;99489.63;10423919;28;20408;-59
2023/07/27 01:40:04;;;;;;;1.65;1.20;;;;;;;14.21;66.11;99482.53;10457273;28;20417;-59
2023/07/27 01:45:07;;;;;;;2.15;1.20;;;;;;;14.23;66.08;99481.47;10421635;28;20179;-59
2023/07/27 01:50:11;;;;;;;2.78;1.30;;;;;;;14.23;66.09;99473.56;10423178;28;20053;-58
2023/07/27 01:55:16;;;;;;;1.80;1.20;;;;;;;14.20;65.90;99471.22;10422652;28;20080;-59
2023/07/27 02:00:19;;;;;;;1.52;1.15;;;;;;;14.22;65.86;99456.13;10422978;28;20096;-58
2023/07/27 02:05:24;;;;;;;2.33;1.20;;;;;;;14.24;65.99;99456.84;10430328;28;20045;-59
2023/07/27 02:10:28;;;;;;;1.38;1.17;;;;;;;14.26;65.72;99457.56;10433662;28;20068;-59
2023/07/27 02:15:36;;;;;;;2.72;1.27;;;;;;;14.27;65.82;99450.47;10430238;28;20060;-59
2023/07/27 02:20:40;;;;;;;3.10;0.95;;;;;;;14.24;65.44;99448.09;10429744;28;20497;-59
2023/07/27 02:25:42;;;;;;;1.55;1.10;;;;;;;14.23;65.47;99442.00;10429452;28;20103;-59
2023/07/27 02:30:44;;;;;;;1.08;0.93;;;;;;;14.26;65.37;99441.78;10430940;28;20132;-59
2023/07/27 02:35:46;;;;;;;1.30;1.05;;;;;;;14.23;65.50;99431.47;10430851;28;20076;-58
2023/07/27 02:40:49;;;;;;;2.22;1.15;;;;;;;14.23;65.55;99428.00;10426589;28;20064;-59
2023/07/27 02:45:59;;;;;;;1.80;1.27;;;;;;;14.27;65.67;99422.38;10462110;28;20137;-59
2023/07/27 02:51:04;;;;;;;3.50;1.50;;;;;;;14.32;65.40;99427.28;10461731;28;20341;-59
2023/07/27 02:56:07;;;;;;;3.47;1.27;;;;;;;14.31;65.31;99423.78;10427451;28;20053;-59
2023/07/27 03:01:19;;;;;;;2.53;1.50;;;;;;;14.20;65.42;99426.50;10462441;28;20048;-58
2023/07/27 03:06:28;;;;;;;1.85;1.27;;;;;;;14.20;65.29;99423.88;10457157;28;20056;-59
2023/07/27 03:11:36;;;;;;;1.77;1.25;;;;;;;14.15;65.67;99419.91;10417545;28;20045;-59
2023/07/27 03:16:38;;;;;;;3.63;2.03;;;;;;;14.20;65.71;99413.34;10422423;28;20049;-57
2023/07/27 03:21:41;;;;;;;1.92;1.27;;;;;;;14.27;65.60;99413.66;10424314;28;20151;-59
2023/07/27 03:26:44;;;;;;;2.75;1.40;;;;;;;14.30;65.53;99406.34;10423277;28;20516;-59
2023/07/27 03:31:46;;;;;;;1.73;1.33;;;;;;;14.30;65.53;99409.00;10455281;28;20059;-60
2023/07/27 03:36:48;;;;;;;2.22;1.25;;;;;;;14.28;65.67;99412.69;10454031;28;20132;-59
2023/07/27 03:41:51;;;;;;;1.80;1.17;;;;;;;14.20;65.75;99413.34;10420666;28;20554;-60
2023/07/27 03:46:53;;;;;;;1.77;1.30;;;;;;;14.21;66.10;99401.00;10418953;28;20146;-60
2023/07/27 03:51:55;;;;;;;2.92;1.23;;;;;;;14.23;66.16;99402.56;10423084;28;20531;-60
2023/07/27 03:56:57;;;;;;;1.98;1.13;;;;;;;14.26;65.96;99391.78;10424544;28;20119;-59
2023/07/27 04:01:59;;;;;;;2.47;1.50;;;;;;;14.27;66.17;99388.19;10424807;28;20107;-60
2023/07/27 04:07:01;;;;;;;2.50;1.50;;;;;;;14.21;66.16;99380.81;10431202;28;20052;-60
2023/07/27 04:12:03;;;;;;;2.45;1.42;;;;;;;14.28;66.37;99381.97;10428882;28;20110;-60
2023/07/27 04:17:05;;;;;;;1.63;1.20;;;;;;;14.30;66.13;99380.06;10460991;28;20056;-59
2023/07/27 04:22:07;;;;;;;2.92;1.40;;;;;;;14.36;66.40;99369.00;10428434;28;20127;-59
2023/07/27 04:27:09;;;;;;;2.22;1.17;;;;;;;14.45;66.17;99365.59;10445088;28;20077;-59
2023/07/27 04:32:11;;;;;;;2.08;1.27;;;;;;;14.48;65.88;99370.63;10425550;28;20126;-60
2023/07/27 04:37:13;;;;;;;2.33;1.58;;;;;;;14.46;65.83;99364.66;10427496;28;20527;-60
2023/07/27 04:42:15;;;;;;;2.90;1.50;;;;;;;14.53;65.86;99362.38;10426007;28;20195;-60
2023/07/27 04:47:17;;;;;;;2.55;1.50;;;;;;;14.66;65.75;99356.88;10410533;28;20472;-60
2023/07/27 04:52:19;;;;;;;1.45;1.20;;;;;;;14.71;65.83;99354.69;10427548;28;20119;-60
2023/07/27 04:57:21;;;;;;;2.50;1.40;;;;;;;14.63;65.53;99347.47;10428413;28;20327;-60
2023/07/27 05:02:23;;;;;;;2.38;1.50;;;;;;;14.62;65.97;99343.16;10426683;28;20421;-60
2023/07/27 05:07:25;;;;;;;2.95;1.55;;;;;;;14.73;65.99;99336.97;10428424;28;20055;-59
2023/07/27 05:12:28;;;;;;;2.47;1.50;;;;;;;14.79;65.73;99331.16;10426199;28;20423;-60
2023/07/27 05:17:30;;;;;;;2.78;1.40;;;;;;;14.79;65.98;99323.28;10426651;28;20135;-60
2023/07/27 05:22:32;;;;;;;2.45;1.40;;;;;;;14.76;66.02;99316.47;10426688;28;20052;-60
2023/07/27 05:27:34;;;;;;;2.45;1.42;;;;;;;14.67;66.04;99311.19;10427052;28;20179;-60
2023/07/27 05:32:37;;;;;;;4.93;1.75;;;;;;;14.57;66.53;99308.50;10425814;28;20068;-60
2023/07/27 05:37:46;;;;;;;2.17;1.40;;;;;;;14.60;66.48;99310.88;10426472;28;20049;-60
2023/07/27 05:42:48;;;;;;;3.17;1.55;;;;;;;14.62;66.47;99308.09;10426905;28;20041;-60
2023/07/27 05:47:50;;;;;;;1.67;1.10;;;;;;;14.69;66.06;99293.44;10424455;28;20049;-60
2023/07/27 05:52:52;;;;;;;1.85;1.35;;;;;;;14.71;65.85;99289.72;10425639;28;20441;-60
2023/07/27 05:57:54;;;;;;;2.90;1.60;;;;;;;14.92;65.78;99279.94;10423346;28;20059;-60
2023/07/27 06:03:02;;;;;;;4.13;1.73;;;;;;;14.99;65.54;99285.50;10414219;28;20045;-60
2023/07/27 06:08:04;;;;;;;3.20;1.40;;;;;;;15.03;65.56;99285.09;10423926;28;20094;-60
2023/07/27 06:13:06;;;;;;;3.45;1.63;;;;;;;14.98;65.34;99284.66;10423469;28;20580;-62
2023/07/27 06:18:08;;;;;;;3.30;1.55;;;;;;;14.94;65.13;99277.19;10421686;28;20684;-62
2023/07/27 06:23:10;;;;;;;2.05;1.42;;;;;;;14.93;65.40;99272.88;10424124;28;20053;-62
2023/07/27 06:28:13;;;;;;;3.22;1.48;;;;;;;14.97;65.87;99272.47;10425901;28;20393;-63
2023/07/27 06:33:15;;;;;;;3.30;1.60;;;;;;;14.97;65.74;99266.38;10424251;28;20056;-62
2023/07/27 06:38:17;;;;;;;2.80;1.55;;;;;;;15.02;66.22;99257.09;10425649;28;20103;-61
2023/07/27 06:43:19;;;;;;;3.63;1.90;;;;;;;14.96;65.63;99248.94;10423605;28;20695;-62
2023/07/27 06:48:21;;;;;;;2.25;1.38;;;;;;;14.92;66.01;99250.97;10418423;28;20703;-62
2023/07/27 06:53:23;;;;;;;3.55;1.40;;;;;;;14.96;66.14;99246.28;10423244;28;20428;-62
2023/07/27 06:58:25;;;;;;;4.00;1.42;;;;;;;15.00;66.18;99243.22;10423126;28;20056;-62
2023/07/27 07:03:29;;;;;;;2.88;1.65;;;;;;;15.13;66.38;99229.81;10420539;28;20569;-62
2023/07/27 07:08:33;;;;;;;1.98;1.38;;;;;;;15.12;66.40;99223.69;10437475;28;20627;-62
2023/07/27 07:13:35;;;;;;;5.10;2.13;;;;;;;15.25;66.80;99218.16;10422334;28;20398;-62
2023/07/27 07:18:37;;;;;;;3.58;2.05;;;;;;;15.21;66.40;99208.88;10448926;28;20402;-62
2023/07/27 07:23:39;;;;;;;3.42;1.80;;;;;;;15.02;67.13;99206.25;10423419;28;20130;-62
2023/07/27 07:28:41;;;;;;;3.28;1.63;;;;;;;14.99;67.17;99198.63;10426234;28;20573;-62
2023/07/27 07:33:43;;;;;;;1.85;1.30;;;;;;;15.06;67.02;99194.47;10433696;28;20123;-62
2023/07/27 07:38:45;;;;;;;2.65;1.48;;;;;;;15.18;67.45;99196.84;10433302;28;20501;-62
2023/07/27 07:43:47;;;;;;;2.05;1.40;;;;;;;15.41;67.12;99189.47;10432905;28;21142;-62
2023/07/27 07:48:49;;;;;;;4.47;1.60;;;;;;;15.33;67.02;99187.53;10433597;28;20451;-62
2023/07/27 07:53:51;;;;;;;4.70;1.95;;;;;;;15.27;67.49;99188.09;10431381;28;20496;-62
2023/07/27 07:58:53;;;;;;;2.42;1.40;;;;;;;15.50;67.33;99175.50;10432998;28;20659;-62
2023/07/27 08:03:55;;;;;;;3.47;1.70;;;;;;;15.74;67.18;99175.84;10432634;28;20635;-62
2023/07/27 08:08:57;;;;;;;2.72;1.50;;;;;;;15.82;66.91;99169.88;10432805;28;20045;-62
2023/07/27 08:14:02;;;;;;;2.40;1.50;;;;;;;15.87;66.93;99162.38;10431167;28;20501;-62
2023/07/27 08:19:04;;;;;;;3.22;1.50;;;;;;;16.02;66.60;99166.19;10430572;28;20064;-63
2023/07/27 08:24:07;;;;;;;2.50;1.40;;;;;;;16.27;66.19;99148.88;10430888;28;20060;-62
2023/07/27 08:29:09;;;;;;;1.48;1.20;;;;;;;16.16;66.62;99145.44;10431571;28;20041;-62
2023/07/27 08:34:11;;;;;;;2.50;1.40;;;;;;;16.27;66.92;99149.72;10431458;28;20049;-62
2023/07/27 08:39:13;;;;;;;1.80;1.20;;;;;;;16.46;66.49;99139.09;10431092;28;20174;-62
2023/07/27 08:44:16;;;;;;;2.10;1.30;;;;;;;16.68;66.21;99140.47;10428239;28;20504;-62
2023/07/27 08:49:19;;;;;;;1.42;1.10;;;;;;;16.95;66.06;99135.16;10429430;28;20402;-62
2023/07/27 08:54:21;;;;;;;1.63;1.10;;;;;;;16.99;65.70;99134.69;10429416;28;20522;-62
2023/07/27 08:59:25;;;;;;;1.65;1.00;;;;;;;17.13;65.84;99128.03;10429901;28;20475;-62
2023/07/27 09:04:27;;;;;;;3.00;0.98;;;;;;;17.20;65.41;99117.69;10430720;28;20179;-62
2023/07/27 09:09:29;;;;;;;1.92;1.13;;;;;;;17.22;65.04;99119.19;10429851;28;20102;-62
2023/07/27 09:14:36;;;;;;;1.23;1.10;;;;;;;17.15;65.59;99117.31;10430564;28;20153;-62
2023/07/27 09:19:40;;;;;;;4.07;1.20;;;;;;;16.96;65.55;99119.13;10427723;28;20144;-62
2023/07/27 09:24:42;;;;;;;1.30;1.00;;;;;;;16.86;65.97;99118.38;10429370;28;20924;-62
2023/07/27 09:29:44;;;;;;;2.20;1.20;;;;;;;16.78;66.17;99106.91;10428647;28;20053;-62
2023/07/27 09:34:54;;;;;;;1.98;1.20;;;;;;;16.63;67.00;99097.88;10429033;28;20135;-62
2023/07/27 09:40:10;;;;;;;1.10;1.00;;;;;;;16.48;68.15;99094.91;10428212;28;20053;-62
2023/07/27 09:45:13;;;;;;;2.97;1.50;;;;;;;16.45;67.52;99103.09;10429035;28;20388;-62
2023/07/27 09:50:16;;;;;;;5.47;1.33;;;;;;;16.57;67.32;99091.34;10428055;28;20080;-62
2023/07/27 09:55:19;;;;;;;2.08;1.27;;;;;;;16.77;67.22;99094.69;10428379;28;20501;-62
2023/07/27 10:00:21;;;;;;;1.48;1.10;;;;;;;17.05;67.31;99090.97;10425557;28;20381;-62
2023/07/27 10:05:23;;;;;;;1.60;1.10;;;;;;;17.18;66.91;99088.75;10427427;28;20138;-62
2023/07/27 10:10:35;;;;;;;3.50;0.95;;;;;;;17.27;66.71;99082.56;10427732;28;20056;-62
2023/07/27 10:15:41;;;;;;;1.52;1.10;;;;;;;17.50;66.07;99070.53;10459618;28;20412;-62
2023/07/27 10:20:43;;;;;;;1.45;1.00;;;;;;;17.90;65.69;99063.78;10426697;28;20056;-62
2023/07/27 10:25:54;;;;;;;1.38;1.08;;;;;;;18.25;64.68;99053.03;10427348;28;20132;-62
2023/07/27 10:31:16;;;;;;;1.55;1.10;;;;;;;18.32;64.43;99068.09;10425910;28;20048;-62
2023/07/27 10:36:20;;;;;;;4.03;1.00;;;;;;;18.29;64.71;99057.00;10427733;28;20045;-62
2023/07/27 10:41:24;;;;;;;1.27;1.00;;;;;;;18.39;64.75;99057.69;10425950;28;20528;-63
2023/07/27 10:46:26;;;;;;;1.67;1.10;;;;;;;18.45;64.83;99057.03;10409680;28;20209;-60
2023/07/27 10:51:33;;;;;;;0.98;0.93;;;;;;;18.40;64.75;99054.06;10423963;28;20475;-60
2023/07/27 10:56:36;;;;;;;1.15;0.90;;;;;;;18.27;65.43;99046.59;10425721;28;20665;-60
2023/07/27 11:01:38;;;;;;;1.80;1.23;;;;;;;18.15;65.68;99050.50;10426364;28;20052;-60
2023/07/27 11:06:43;;;;;;;1.50;1.17;;;;;;;18.29;65.76;99046.44;10431804;28;20049;-60
2023/07/27 11:11:49;;;;;;;1.90;1.35;;;;;;;18.53;65.77;99036.72;10431234;28;20168;-60
2023/07/27 11:16:52;;;;;;;1.35;1.00;;;;;;;18.60;65.26;99032.44;10427991;28;20055;-60
2023/07/27 11:21:54;;;;;;;2.00;1.60;;;;;;;18.63;65.36;99031.25;10427066;28;20477;-60
2023/07/27 11:26:57;;;;;;;2.00;1.20;;;;;;;18.86;65.25;99034.91;10428044;28;20051;-61
2023/07/27 11:32:00;;;;;;;2.03;1.20;;;;;;;19.06;64.75;99020.38;10426058;28;20040;-61
2023/07/27 11:37:02;;;;;;;3.63;1.02;;;;;;;19.37;64.31;99016.00;10423914;28;20045;-61
2023/07/27 11:42:10;;;;;;;2.47;1.10;;;;;;;19.60;63.87;99010.81;10429456;28;20061;-61
2023/07/27 11:47:13;;;;;;;1.40;1.00;;;;;;;19.67;63.62;99016.22;10432020;28;20331;-60
2023/07/27 11:52:17;;;;;;;1.75;1.10;;;;;;;19.58;64.01;99015.47;10414064;28;20043;-60
2023/07/27 11:57:24;;;;;;;2.15;1.13;;;;;;;19.45;64.19;99018.66;10462350;28;20041;-60
2023/07/27 12:02:30;;;;;;;1.10;0.80;;;;;;;19.38;64.12;99020.31;10431678;28;20390;-60
2023/07/27 12:07:35;;;;;;;3.13;0.75;;;;;;;19.38;64.43;99025.59;10431386;28;20448;-60
2023/07/27 12:12:59;;;;;;;1.25;0.82;;;;;;;19.25;64.57;99009.41;10414413;28;20052;-60
2023/07/27 12:18:06;;;;;;;1.52;1.00;;;;;;;19.35;63.99;99011.88;10428892;28;20588;-60
2023/07/27 12:23:08;;;;;;;1.20;0.77;;;;;;;19.80;63.31;99008.56;10430208;28;20365;-60
2023/07/27 12:28:13;;;;;;;1.60;0.90;;;;;;;20.40;62.44;98998.97;10430880;28;20072;-60
2023/07/27 12:33:21;;;;;;;1.70;0.80;;;;;;;20.38;61.83;99003.63;10430516;28;20102;-60
2023/07/27 12:38:25;;;;;;;1.38;0.90;;;;;;;20.39;61.93;98999.97;10427011;28;20059;-61
2023/07/27 12:43:29;;;;;;;1.75;0.85;;;;;;;20.48;61.41;99006.88;10427747;28;20317;-60
2023/07/27 12:48:32;;;;;;;1.90;1.10;;;;;;;20.47;60.64;99002.59;10422450;28;20045;-60
2023/07/27 12:53:34;;;;;;;2.20;1.38;;;;;;;20.38;60.93;98995.66;10425827;28;20429;-60
2023/07/27 12:58:36;;;;;;;1.52;0.85;;;;;;;20.58;60.54;98991.56;10425474;28;20191;-61
2023/07/27 13:03:38;;;;;;;1.70;1.27;;;;;;;20.59;60.05;98987.91;10424711;28;20059;-60
2023/07/27 13:08:40;;;;;;;0.95;0.77;;;;;;;20.21;60.29;98994.94;10425052;28;20049;-60
2023/07/27 13:13:42;;;;;;;0.82;0.63;;;;;;;20.13;60.64;98988.88;10424563;28;20052;-60
2023/07/27 13:18:45;;;;;;;1.98;0.80;;;;;;;20.28;60.64;98984.44;10427918;28;20122;-60
2023/07/27 13:23:48;;;;;;;1.42;0.90;;;;;;;20.41;60.89;98987.34;10428212;28;20045;-60
2023/07/27 13:28:50;;;;;;;0.93;0.70;;;;;;;20.36;60.98;98995.00;10422695;28;20037;-60
2023/07/27 13:33:52;;;;;;;1.08;0.73;;;;;;;20.18;61.63;98992.66;10422654;28;20122;-60
2023/07/27 13:38:54;;;;;;;1.63;1.25;;;;;;;20.04;62.22;98989.91;10423524;28;20091;-60
2023/07/27 13:43:56;;;;;;;0.95;0.70;;;;;;;20.24;61.71;99005.22;10424259;28;20122;-60
2023/07/27 13:48:57;;;;;;;3.60;1.17;;;;;;;20.37;61.93;99003.81;10424066;28;20370;-60
2023/07/27 13:53:59;;;;;;;0.35;0.32;;;;;;;20.24;61.75;98996.41;10408025;28;20045;-60
2023/07/27 13:59:01;;;;;;;1.08;0.70;;;;;;;19.92;62.64;98996.59;10423136;28;20144;-60
2023/07/27 14:04:03;;;;;;;1.40;0.70;;;;;;;19.71;63.54;98991.03;10426034;28;20037;-60
2023/07/27 14:09:05;;;;;;;1.33;0.43;;;;;;;19.73;63.43;98992.50;10423562;28;20055;-60
2023/07/27 14:14:08;;;;;;;0.85;0.55;;;;;;;19.77;63.45;98995.63;10426631;28;20457;-60
2023/07/27 14:19:10;;;;;;;1.63;0.70;;;;;;;19.93;63.25;98998.28;10425865;28;20565;-60
2023/07/27 14:24:12;;;;;;;1.05;0.68;;;;;;;19.80;63.33;98992.66;10425518;28;20056;-60
2023/07/27 14:29:14;;;;;;;0.73;0.57;;;;;;;19.91;63.60;98997.63;10426201;28;20266;-60
2023/07/27 14:34:16;;;;;;;1.67;0.60;;;;;;;19.96;63.02;98980.16;10425099;28;20080;-60
2023/07/27 14:39:18;;;;;;;1.63;0.52;;;;;;;19.85;63.21;98977.06;10425442;28;20512;-60
2023/07/27 14:44:20;;;;;;;0.52;0.52;;;;;;;19.60;64.06;98986.09;10457085;28;20045;-60
2023/07/27 14:49:22;;;;;;;2.58;0.57;;;;;;;19.44;64.17;98987.81;10425052;28;20171;-60
2023/07/27 14:54:25;;;;;;;1.00;0.70;;;;;;;19.51;63.80;98987.13;10424988;28;20057;-60
2023/07/27 14:59:27;;;;;;;0.40;0.40;;;;;;;19.50;64.01;98980.19;10424147;28;20417;-60
2023/07/27 15:04:29;;;;;;;0.50;0.43;;;;;;;19.60;63.59;98971.03;10422275;28;20142;-60
2023/07/27 15:09:35;;;;;;;2.03;0.77;;;;;;;19.84;63.78;98975.41;10423150;28;20047;-60
2023/07/27 15:14:37;;;;;;;0.50;0.50;;;;;;;19.81;63.37;98978.38;10422517;28;20167;-60
2023/07/27 15:19:40;;;;;;;2.03;0.82;;;;;;;19.75;63.52;98979.91;10421354;28;20183;-60
2023/07/27 15:24:42;;;;;;;1.20;0.80;;;;;;;19.72;63.34;98974.13;10409087;28;20065;-60
2023/07/27 15:30:03;;;;;;;0.40;0.40;;;;;;;19.62;63.80;98974.34;10425285;28;20059;-60
2023/07/27 15:35:06;;;;;;;0.75;0.75;;;;;;;19.53;64.04;98966.56;10426407;28;20431;-60
2023/07/27 15:40:09;;;;;;;0.90;0.80;;;;;;;19.51;63.96;98981.81;10425876;28;20122;-62
2023/07/27 15:45:11;;;;;;;0.77;0.68;;;;;;;19.61;64.09;98970.00;10423435;28;20095;-62
2023/07/27 15:50:13;;;;;;;0.47;0.45;;;;;;;19.65;63.78;98973.13;10425079;28;20072;-62
2023/07/27 15:55:15;;;;;;;0.70;0.63;;;;;;;19.79;63.55;98967.94;10433651;28;20075;-62
2023/07/27 16:00:18;;;;;;;1.10;1.00;;;;;;;19.75;63.70;98971.94;10432513;28;20142;-62
2023/07/27 16:05:20;;;;;;;0.60;0.60;;;;;;;19.84;64.09;98970.09;10427420;28;20531;-62
2023/07/27 16:10:22;;;;;;;1.50;0.70;;;;;;;19.90;63.99;98972.91;10431873;28;20044;-62
2023/07/27 16:15:26;;;;;;;1.00;0.75;;;;;;;19.59;64.06;98979.13;10431244;28;20037;-62
2023/07/27 16:20:28;;;;;;;0.63;0.60;;;;;;;19.59;63.99;98973.81;10410585;28;20143;-62
2023/07/27 16:25:31;;;;;;;3.65;1.00;;;;;;;19.53;64.53;98974.50;10429829;28;20053;-62
2023/07/27 16:30:34;;;;;;;1.05;0.82;;;;;;;19.36;64.66;98977.22;10430141;28;20053;-62
2023/07/27 16:35:37;;;;;;;0.93;0.73;;;;;;;19.34;64.58;98973.06;10425591;28;20049;-63
2023/07/27 16:40:39;;;;;;;1.02;0.80;;;;;;;19.34;65.03;98976.56;10425095;28;20052;-62
2023/07/27 16:45:41;;;;;;;1.67;0.80;;;;;;;19.12;65.75;98981.75;10428315;28;20131;-62
2023/07/27 16:50:44;;;;;;;4.20;1.15;;;;;;;19.09;65.74;98982.94;10423705;28;20043;-62
2023/07/27 16:55:46;;;;;;;1.75;1.08;;;;;;;18.94;66.45;98979.28;10418404;28;20041;-62
2023/07/27 17:00:48;;;;;;;0.88;0.77;;;;;;;18.84;67.33;98981.28;10418951;28;20412;-62
2023/07/27 17:05:50;;;;;;;1.52;1.20;;;;;;;18.67;67.23;98974.31;10421804;28;20053;-62
2023/07/27 17:11:01;;;;;;;1.23;0.85;;;;;;;18.54;68.08;98980.09;10417758;28;20060;-63
2023/07/27 17:16:07;;;;;;;2.85;1.25;;;;;;;18.52;67.90;98976.78;10424222;28;20049;-62
2023/07/27 17:21:10;;;;;;;1.73;1.13;;;;;;;18.58;67.63;98983.25;10423771;28;20172;-62
2023/07/27 17:26:12;;;;;;;3.88;1.30;;;;;;;18.59;67.71;98979.59;10424393;28;20127;-62
2023/07/27 17:31:14;;;;;;;2.08;1.00;;;;;;;18.54;68.28;98987.25;10425526;28;20428;-62
2023/07/27 17:36:16;;;;;;;2.17;1.25;;;;;;;18.45;68.53;98994.34;10425157;28;20056;-62
2023/07/27 17:41:18;;;;;;;2.92;1.20;;;;;;;18.51;68.26;98995.50;10427227;28;20045;-62
2023/07/27 17:46:20;;;;;;;3.75;1.42;;;;;;;18.48;68.47;98995.84;10423605;28;20045;-62
2023/07/27 17:51:22;;;;;;;2.38;1.20;;;;;;;18.54;68.51;98995.19;10423547;28;20053;-62
2023/07/27 17:56:24;;;;;;;4.53;1.45;;;;;;;18.51;68.56;98992.84;10426038;28;20083;-62
2023/07/27 18:01:26;;;;;;;1.92;1.13;;;;;;;18.50;68.97;98997.31;10422119;28;20504;-62
2023/07/27 18:06:29;;;;;;;2.80;1.25;;;;;;;18.58;68.75;98989.38;10422774;28;20063;-62
2023/07/27 18:11:31;;;;;;;2.10;1.30;;;;;;;18.51;68.71;98984.91;10421578;28;20150;-62
2023/07/27 18:16:34;;;;;;;3.10;1.33;;;;;;;18.55;68.86;98989.72;10421429;28;20048;-62
2023/07/27 18:21:36;;;;;;;2.03;1.27;;;;;;;18.60;68.78;98994.53;10421696;28;20060;-62
2023/07/27 18:26:38;;;;;;;2.15;1.23;;;;;;;18.62;68.99;98993.38;10415652;28;20259;-62
2023/07/27 18:31:40;;;;;;;3.15;1.52;;;;;;;18.66;68.85;98988.56;10421318;28;20235;-62
2023/07/27 18:36:43;;;;;;;3.03;1.40;;;;;;;18.70;68.56;98989.06;10418876;28;20044;-62
2023/07/27 18:41:45;;;;;;;2.47;1.42;;;;;;;18.62;68.98;99000.47;10419164;28;20060;-62
2023/07/27 18:46:47;;;;;;;3.22;1.52;;;;;;;18.66;68.96;98991.22;10450646;28;20551;-62
2023/07/27 18:51:49;;;;;;;2.22;1.40;;;;;;;18.65;68.96;99005.44;10419996;28;20041;-59
2023/07/27 18:56:51;;;;;;;2.40;1.40;;;;;;;18.51;69.27;98988.38;10413778;28;20059;-59
2023/07/27 19:01:53;;;;;;;2.53;1.40;;;;;;;18.36;69.84;98999.81;10435427;28;20110;-58
2023/07/27 19:06:56;;;;;;;2.67;1.25;;;;;;;18.25;69.70;99002.75;10416914;28;20045;-59
2023/07/27 19:11:58;;;;;;;2.63;1.30;;;;;;;18.19;69.91;99006.00;10419136;28;20501;-59
2023/07/27 19:17:00;;;;;;;1.90;1.20;;;;;;;18.07;70.03;99004.66;10416052;28;20067;-59
2023/07/27 19:22:03;;;;;;;6.15;1.50;;;;;;;17.94;70.45;99009.56;10418384;28;20052;-59
2023/07/27 19:27:05;;;;;;;2.45;1.10;;;;;;;17.93;70.14;99010.56;10421340;28;20917;-59
2023/07/27 19:32:07;;;;;;;2.65;1.38;;;;;;;17.89;70.21;99025.09;10426689;28;20396;-58
2023/07/27 19:37:09;;;;;;;2.20;1.10;;;;;;;17.93;69.94;99026.44;10424234;28;20404;-59
2023/07/27 19:42:11;;;;;;;2.30;1.10;;;;;;;17.84;70.57;99033.50;10423755;28;20052;-59
2023/07/27 19:47:14;;;;;;;4.05;1.63;;;;;;;17.85;70.19;99040.47;10425934;28;20809;-58
2023/07/27 19:52:16;;;;;;;2.97;1.20;;;;;;;17.73;70.50;99036.41;10456757;28;20041;-59
2023/07/27 19:57:18;;;;;;;2.95;1.55;;;;;;;17.83;70.37;99042.44;10424904;28;20075;-59
2023/07/27 20:02:20;;;;;;;1.63;1.10;;;;;;;17.72;70.77;99040.06;10426214;28;20471;-59
2023/07/27 20:07:23;;;;;;;2.17;1.00;;;;;;;17.64;70.79;99043.50;10426094;28;20049;-59
2023/07/27 20:12:27;;;;;;;1.63;1.00;;;;;;;17.51;70.48;99047.56;10424821;28;20057;-59
2023/07/27 20:17:29;;;;;;;2.10;1.10;;;;;;;17.46;70.44;99045.41;10452783;28;20064;-58
2023/07/27 20:22:34;;;;;;;1.23;0.80;;;;;;;17.37;70.62;99041.03;10423291;28;20051;-59
2023/07/27 20:27:36;;;;;;;2.35;0.90;;;;;;;17.41;70.90;99042.38;10455097;28;20041;-59
2023/07/27 20:32:38;;;;;;;1.60;0.90;;;;;;;17.50;70.65;99041.47;10425476;28;20088;-58
2023/07/27 20:37:41;;;;;;;1.55;0.90;;;;;;;17.49;70.37;99039.78;10423410;28;20049;-58
2023/07/27 20:42:43;;;;;;;0.80;0.73;;;;;;;17.50;70.59;99035.34;10424414;28;20066;-58
2023/07/27 20:47:45;;;;;;;1.48;1.00;;;;;;;17.48;70.65;99027.56;10426811;28;20053;-58
2023/07/27 20:52:47;;;;;;;1.75;1.10;;;;;;;17.43;70.20;99045.69;10424711;28;20138;-59
2023/07/27 20:57:50;;;;;;;1.25;0.82;;;;;;;17.41;70.67;99049.47;10414359;28;20048;-58
2023/07/27 21:02:52;;;;;;;2.67;1.00;;;;;;;17.40;70.32;99039.91;10422218;28;20096;-59
2023/07/27 21:07:55;;;;;;;1.92;1.08;;;;;;;17.28;70.68;99041.13;10423518;28;20056;-58
2023/07/27 21:12:57;;;;;;;1.77;1.10;;;;;;;17.20;70.56;99022.56;10439311;28;20055;-58
2023/07/27 21:17:58;;;;;;;1.88;1.00;;;;;;;17.14;70.53;99026.63;10454675;28;20041;-59
2023/07/27 21:23:01;;;;;;;1.75;1.10;;;;;;;16.97;70.90;99027.53;10425018;28;20100;-58
2023/07/27 21:28:03;;;;;;;1.85;1.17;;;;;;;16.90;71.31;99021.19;10419062;28;20049;-58
2023/07/27 21:33:05;;;;;;;2.30;1.17;;;;;;;16.84;71.02;99022.63;10418438;28;20559;-58
2023/07/27 21:38:23;;;;;;;2.17;1.23;;;;;;;16.85;71.02;99021.63;10447341;28;20049;-59
2023/07/27 21:43:25;;;;;;;1.52;0.93;;;;;;;16.93;70.57;99015.59;10419078;28;20057;-58
2023/07/27 21:48:27;;;;;;;1.40;0.95;;;;;;;16.93;70.95;99016.44;10424214;28;20077;-59
2023/07/27 21:53:29;;;;;;;2.40;1.30;;;;;;;16.92;70.65;99020.06;10421365;28;20795;-59
2023/07/27 21:58:31;;;;;;;1.23;0.85;;;;;;;17.02;70.45;99012.03;10418910;28;20043;-59
2023/07/27 22:03:35;;;;;;;1.35;0.90;;;;;;;16.93;70.63;99011.16;10415078;28;21153;-58
2023/07/27 22:08:37;;;;;;;1.40;0.98;;;;;;;16.93;70.72;99018.25;10420107;28;20045;-58
2023/07/27 22:13:39;;;;;;;1.85;0.95;;;;;;;16.98;70.21;99031.81;10420230;28;20303;-59
2023/07/27 22:18:41;;;;;;;2.63;1.10;;;;;;;16.97;70.44;99028.34;10419125;28;20044;-58
2023/07/27 22:23:43;;;;;;;1.08;0.80;;;;;;;16.95;70.55;99029.50;10419389;28;20052;-58
2023/07/27 22:28:45;;;;;;;2.65;0.75;;;;;;;17.06;70.42;99033.69;10417642;28;20072;-58
2023/07/27 22:33:47;;;;;;;2.67;1.17;;;;;;;17.00;70.36;99032.47;10419748;28;20064;-59
2023/07/27 22:38:49;;;;;;;1.33;0.73;;;;;;;17.01;70.30;99039.44;10419042;28;20375;-58
2023/07/27 22:43:52;;;;;;;1.67;0.85;;;;;;;17.00;70.64;99032.47;10415787;28;20053;-59
2023/07/27 22:48:54;;;;;;;3.35;1.00;;;;;;;16.98;70.51;99030.00;10414043;28;20056;-58
2023/07/27 22:53:56;;;;;;;2.00;0.98;;;;;;;16.88;70.95;99023.16;10419403;28;20103;-58
2023/07/27 22:58:58;;;;;;;2.95;1.38;;;;;;;16.89;70.96;99022.19;10417568;28;20057;-59
2023/07/27 23:04:00;;;;;;;0.85;0.70;;;;;;;16.85;70.98;99026.09;10425618;28;20045;-58
2023/07/27 23:09:02;;;;;;;3.72;1.08;;;;;;;16.80;71.22;99026.56;10426655;28;20051;-58
2023/07/27 23:14:04;;;;;;;1.27;1.00;;;;;;;16.72;71.28;99029.13;10426108;28;20052;-58
2023/07/27 23:19:06;;;;;;;1.42;0.82;;;;;;;16.74;71.34;99036.91;10425027;28;20049;-58
2023/07/27 23:24:09;;;;;;;1.33;1.00;;;;;;;16.79;71.05;99029.38;10422889;28;20218;-58
2023/07/27 23:29:11;;;;;;;1.35;0.82;;;;;;;16.82;71.35;99035.16;10424377;28;20136;-58